sensor_id;sensor_type;location;lat;lon;timestamp;P1;durP1;ratioP1;P2;durP2;ratioP2
21352;SDS011;10834;52.268;6.770;2023-11-21T00:00:16;42.90;;;19.27;;
21352;SDS011;10834;52.268;6.770;2023-11-21T00:03:01;36.07;;;19.00;;
21352;SDS011;10834;52.268;6.770;2023-11-21T00:05:45;36.40;;;18.40;;
21352;SDS011;10834;52.268;6.770;2023-11-21T00:08:29;42.07;;;18.07;;
21352;SDS011;10834;52.268;6.770;2023-11-21T00:11:13;42.77;;;20.03;;
21352;SDS011;10834;52.268;6.770;2023-11-21T00:13:58;44.27;;;20.20;;
21352;SDS011;10834;52.268;6.770;2023-11-21T00:16:42;43.77;;;21.23;;
21352;SDS011;10834;52.268;6.770;2023-11-21T00:19:26;38.97;;;19.77;;
21352;SDS011;10834;52.268;6.770;2023-11-21T00:22:10;44.13;;;19.63;;
21352;SDS011;10834;52.268;6.770;2023-11-21T00:24:54;41.37;;;18.87;;
21352;SDS011;10834;52.268;6.770;2023-11-21T00:27:38;43.77;;;19.97;;
21352;SDS011;10834;52.268;6.770;2023-11-21T00:30:22;38.23;;;19.10;;
21352;SDS011;10834;52.268;6.770;2023-11-21T00:33:06;41.60;;;20.17;;
21352;SDS011;10834;52.268;6.770;2023-11-21T00:35:50;45.07;;;21.43;;
21352;SDS011;10834;52.268;6.770;2023-11-21T00:38:34;42.03;;;20.07;;
21352;SDS011;10834;52.268;6.770;2023-11-21T00:41:19;41.13;;;19.27;;
21352;SDS011;10834;52.268;6.770;2023-11-21T00:44:03;49.87;;;21.60;;
21352;SDS011;10834;52.268;6.770;2023-11-21T00:46:47;38.87;;;18.97;;
21352;SDS011;10834;52.268;6.770;2023-11-21T00:49:31;38.93;;;20.00;;
21352;SDS011;10834;52.268;6.770;2023-11-21T00:52:16;37.47;;;18.40;;
21352;SDS011;10834;52.268;6.770;2023-11-21T00:55:00;35.23;;;18.30;;
21352;SDS011;10834;52.268;6.770;2023-11-21T00:57:46;35.97;;;17.40;;
21352;SDS011;10834;52.268;6.770;2023-11-21T01:00:30;38.50;;;20.50;;
21352;SDS011;10834;52.268;6.770;2023-11-21T01:03:15;41.10;;;19.10;;
21352;SDS011;10834;52.268;6.770;2023-11-21T01:06:00;34.47;;;19.30;;
21352;SDS011;10834;52.268;6.770;2023-11-21T01:08:44;38.97;;;20.33;;
21352;SDS011;10834;52.268;6.770;2023-11-21T01:11:28;39.40;;;19.73;;
21352;SDS011;10834;52.268;6.770;2023-11-21T01:14:12;45.73;;;22.73;;
21352;SDS011;10834;52.268;6.770;2023-11-21T01:16:57;48.43;;;22.27;;
21352;SDS011;10834;52.268;6.770;2023-11-21T01:19:41;45.97;;;22.90;;
21352;SDS011;10834;52.268;6.770;2023-11-21T01:22:25;51.13;;;23.73;;
21352;SDS011;10834;52.268;6.770;2023-11-21T01:25:10;50.27;;;23.93;;
21352;SDS011;10834;52.268;6.770;2023-11-21T01:27:54;50.67;;;23.87;;
21352;SDS011;10834;52.268;6.770;2023-11-21T01:30:39;51.27;;;24.43;;
21352;SDS011;10834;52.268;6.770;2023-11-21T01:33:24;46.23;;;22.40;;
21352;SDS011;10834;52.268;6.770;2023-11-21T01:36:09;48.87;;;24.03;;
21352;SDS011;10834;52.268;6.770;2023-11-21T01:38:54;46.37;;;22.90;;
21352;SDS011;10834;52.268;6.770;2023-11-21T01:41:38;48.80;;;25.20;;
21352;SDS011;10834;52.268;6.770;2023-11-21T01:44:22;48.63;;;23.70;;
21352;SDS011;10834;52.268;6.770;2023-11-21T01:47:07;55.50;;;24.73;;
21352;SDS011;10834;52.268;6.770;2023-11-21T01:49:52;45.73;;;23.30;;
21352;SDS011;10834;52.268;6.770;2023-11-21T01:52:36;45.40;;;24.03;;
21352;SDS011;10834;52.268;6.770;2023-11-21T01:55:22;47.57;;;23.87;;
21352;SDS011;10834;52.268;6.770;2023-11-21T01:58:07;47.50;;;24.00;;
21352;SDS011;10834;52.268;6.770;2023-11-21T02:00:52;43.73;;;22.97;;
21352;SDS011;10834;52.268;6.770;2023-11-21T02:03:38;50.17;;;24.00;;
21352;SDS011;10834;52.268;6.770;2023-11-21T02:06:23;50.27;;;24.37;;
21352;SDS011;10834;52.268;6.770;2023-11-21T02:09:08;45.80;;;24.00;;
21352;SDS011;10834;52.268;6.770;2023-11-21T02:11:53;50.60;;;25.27;;
21352;SDS011;10834;52.268;6.770;2023-11-21T02:14:37;45.90;;;24.80;;
21352;SDS011;10834;52.268;6.770;2023-11-21T02:17:21;43.97;;;24.83;;
21352;SDS011;10834;52.268;6.770;2023-11-21T02:20:05;50.73;;;24.20;;
21352;SDS011;10834;52.268;6.770;2023-11-21T02:22:51;56.77;;;27.73;;
21352;SDS011;10834;52.268;6.770;2023-11-21T02:25:42;52.93;;;26.90;;
21352;SDS011;10834;52.268;6.770;2023-11-21T02:28:27;42.27;;;23.00;;
21352;SDS011;10834;52.268;6.770;2023-11-21T02:31:11;52.20;;;26.37;;
21352;SDS011;10834;52.268;6.770;2023-11-21T02:33:56;43.97;;;22.57;;
21352;SDS011;10834;52.268;6.770;2023-11-21T02:36:40;45.60;;;23.37;;
21352;SDS011;10834;52.268;6.770;2023-11-21T02:39:25;42.27;;;22.13;;
21352;SDS011;10834;52.268;6.770;2023-11-21T02:42:10;46.80;;;22.17;;
21352;SDS011;10834;52.268;6.770;2023-11-21T02:44:54;55.87;;;25.33;;
21352;SDS011;10834;52.268;6.770;2023-11-21T02:47:38;48.07;;;25.33;;
21352;SDS011;10834;52.268;6.770;2023-11-21T02:50:23;50.60;;;24.47;;
21352;SDS011;10834;52.268;6.770;2023-11-21T02:53:08;56.37;;;26.23;;
21352;SDS011;10834;52.268;6.770;2023-11-21T02:55:54;51.33;;;27.40;;
21352;SDS011;10834;52.268;6.770;2023-11-21T02:58:41;57.07;;;25.57;;
21352;SDS011;10834;52.268;6.770;2023-11-21T03:01:27;54.87;;;25.60;;
21352;SDS011;10834;52.268;6.770;2023-11-21T03:04:12;51.97;;;26.10;;
21352;SDS011;10834;52.268;6.770;2023-11-21T03:07:01;52.07;;;26.23;;
21352;SDS011;10834;52.268;6.770;2023-11-21T03:09:45;53.53;;;25.30;;
21352;SDS011;10834;52.268;6.770;2023-11-21T03:12:29;54.97;;;24.60;;
21352;SDS011;10834;52.268;6.770;2023-11-21T03:15:14;46.93;;;25.27;;
21352;SDS011;10834;52.268;6.770;2023-11-21T03:17:58;56.20;;;26.20;;
21352;SDS011;10834;52.268;6.770;2023-11-21T03:20:43;55.47;;;28.47;;
21352;SDS011;10834;52.268;6.770;2023-11-21T03:23:30;49.17;;;24.30;;
21352;SDS011;10834;52.268;6.770;2023-11-21T03:26:15;53.90;;;26.00;;
21352;SDS011;10834;52.268;6.770;2023-11-21T03:29:00;54.27;;;26.60;;
21352;SDS011;10834;52.268;6.770;2023-11-21T03:31:44;54.97;;;26.57;;
21352;SDS011;10834;52.268;6.770;2023-11-21T03:34:28;53.77;;;25.30;;
21352;SDS011;10834;52.268;6.770;2023-11-21T03:37:12;55.70;;;25.50;;
21352;SDS011;10834;52.268;6.770;2023-11-21T03:39:56;57.30;;;28.33;;
21352;SDS011;10834;52.268;6.770;2023-11-21T03:42:40;54.50;;;27.80;;
21352;SDS011;10834;52.268;6.770;2023-11-21T03:45:25;58.50;;;27.30;;
21352;SDS011;10834;52.268;6.770;2023-11-21T03:48:09;59.47;;;27.67;;
21352;SDS011;10834;52.268;6.770;2023-11-21T03:50:56;59.73;;;26.83;;
21352;SDS011;10834;52.268;6.770;2023-11-21T03:53:40;57.63;;;26.17;;
21352;SDS011;10834;52.268;6.770;2023-11-21T03:56:25;52.00;;;27.00;;
21352;SDS011;10834;52.268;6.770;2023-11-21T03:59:09;57.30;;;26.73;;
21352;SDS011;10834;52.268;6.770;2023-11-21T04:01:55;58.43;;;26.30;;
21352;SDS011;10834;52.268;6.770;2023-11-21T04:04:40;57.30;;;27.80;;
21352;SDS011;10834;52.268;6.770;2023-11-21T04:07:25;52.67;;;25.50;;
21352;SDS011;10834;52.268;6.770;2023-11-21T04:10:09;55.37;;;26.37;;
21352;SDS011;10834;52.268;6.770;2023-11-21T04:12:56;59.47;;;27.57;;
21352;SDS011;10834;52.268;6.770;2023-11-21T04:15:40;56.33;;;25.47;;
21352;SDS011;10834;52.268;6.770;2023-11-21T04:18:24;61.00;;;27.50;;
21352;SDS011;10834;52.268;6.770;2023-11-21T04:21:08;55.03;;;28.10;;
21352;SDS011;10834;52.268;6.770;2023-11-21T04:23:52;56.80;;;26.03;;
21352;SDS011;10834;52.268;6.770;2023-11-21T04:26:36;55.13;;;26.83;;
21352;SDS011;10834;52.268;6.770;2023-11-21T04:29:21;61.87;;;26.67;;
21352;SDS011;10834;52.268;6.770;2023-11-21T04:32:06;53.47;;;25.00;;
21352;SDS011;10834;52.268;6.770;2023-11-21T04:34:51;63.97;;;27.47;;
21352;SDS011;10834;52.268;6.770;2023-11-21T04:37:35;49.50;;;26.57;;
21352;SDS011;10834;52.268;6.770;2023-11-21T04:40:20;54.93;;;26.73;;
21352;SDS011;10834;52.268;6.770;2023-11-21T04:43:04;62.10;;;27.40;;
21352;SDS011;10834;52.268;6.770;2023-11-21T04:45:48;54.23;;;25.00;;
21352;SDS011;10834;52.268;6.770;2023-11-21T04:48:32;51.80;;;26.23;;
21352;SDS011;10834;52.268;6.770;2023-11-21T04:51:16;65.23;;;29.07;;
21352;SDS011;10834;52.268;6.770;2023-11-21T04:54:01;58.40;;;25.90;;
21352;SDS011;10834;52.268;6.770;2023-11-21T04:56:46;52.20;;;24.47;;
21352;SDS011;10834;52.268;6.770;2023-11-21T04:59:30;56.47;;;26.80;;
21352;SDS011;10834;52.268;6.770;2023-11-21T05:02:14;51.83;;;25.87;;
21352;SDS011;10834;52.268;6.770;2023-11-21T05:04:58;56.67;;;27.30;;
21352;SDS011;10834;52.268;6.770;2023-11-21T05:07:42;54.53;;;28.40;;
21352;SDS011;10834;52.268;6.770;2023-11-21T05:10:26;60.90;;;26.80;;
21352;SDS011;10834;52.268;6.770;2023-11-21T05:13:10;62.10;;;27.23;;
21352;SDS011;10834;52.268;6.770;2023-11-21T05:15:54;60.33;;;25.77;;
21352;SDS011;10834;52.268;6.770;2023-11-21T05:18:42;55.63;;;29.37;;
21352;SDS011;10834;52.268;6.770;2023-11-21T05:21:27;60.33;;;27.30;;
21352;SDS011;10834;52.268;6.770;2023-11-21T05:24:13;56.03;;;26.43;;
21352;SDS011;10834;52.268;6.770;2023-11-21T05:26:57;56.90;;;27.03;;
21352;SDS011;10834;52.268;6.770;2023-11-21T05:29:41;50.73;;;26.00;;
21352;SDS011;10834;52.268;6.770;2023-11-21T05:32:25;54.00;;;26.00;;
21352;SDS011;10834;52.268;6.770;2023-11-21T05:35:10;57.07;;;26.97;;
21352;SDS011;10834;52.268;6.770;2023-11-21T05:37:59;50.07;;;26.10;;
21352;SDS011;10834;52.268;6.770;2023-11-21T05:40:43;50.07;;;26.67;;
21352;SDS011;10834;52.268;6.770;2023-11-21T05:43:27;55.47;;;25.60;;
21352;SDS011;10834;52.268;6.770;2023-11-21T05:46:14;53.83;;;26.23;;
21352;SDS011;10834;52.268;6.770;2023-11-21T05:48:58;49.53;;;25.13;;
21352;SDS011;10834;52.268;6.770;2023-11-21T05:51:42;60.63;;;27.07;;
21352;SDS011;10834;52.268;6.770;2023-11-21T05:54:26;57.83;;;26.60;;
21352;SDS011;10834;52.268;6.770;2023-11-21T05:57:10;53.00;;;26.87;;
21352;SDS011;10834;52.268;6.770;2023-11-21T05:59:55;56.73;;;25.60;;
21352;SDS011;10834;52.268;6.770;2023-11-21T06:02:39;53.63;;;27.17;;
21352;SDS011;10834;52.268;6.770;2023-11-21T06:05:24;50.43;;;26.20;;
21352;SDS011;10834;52.268;6.770;2023-11-21T06:08:08;54.47;;;26.90;;
21352;SDS011;10834;52.268;6.770;2023-11-21T06:10:54;57.47;;;27.73;;
21352;SDS011;10834;52.268;6.770;2023-11-21T06:13:39;57.83;;;26.77;;
21352;SDS011;10834;52.268;6.770;2023-11-21T06:16:24;49.97;;;26.97;;
21352;SDS011;10834;52.268;6.770;2023-11-21T06:19:07;61.90;;;27.60;;
21352;SDS011;10834;52.268;6.770;2023-11-21T06:21:52;52.23;;;27.53;;
21352;SDS011;10834;52.268;6.770;2023-11-21T06:24:36;54.73;;;26.83;;
21352;SDS011;10834;52.268;6.770;2023-11-21T06:27:21;56.20;;;27.53;;
21352;SDS011;10834;52.268;6.770;2023-11-21T06:30:05;50.00;;;26.13;;
21352;SDS011;10834;52.268;6.770;2023-11-21T06:32:50;47.33;;;26.53;;
21352;SDS011;10834;52.268;6.770;2023-11-21T06:35:34;52.20;;;25.33;;
21352;SDS011;10834;52.268;6.770;2023-11-21T06:38:18;52.07;;;25.40;;
21352;SDS011;10834;52.268;6.770;2023-11-21T06:41:03;52.70;;;26.07;;
21352;SDS011;10834;52.268;6.770;2023-11-21T06:43:48;48.60;;;25.73;;
21352;SDS011;10834;52.268;6.770;2023-11-21T06:46:33;51.33;;;24.80;;
21352;SDS011;10834;52.268;6.770;2023-11-21T06:49:17;48.17;;;25.50;;
21352;SDS011;10834;52.268;6.770;2023-11-21T06:52:01;48.13;;;24.90;;
21352;SDS011;10834;52.268;6.770;2023-11-21T06:54:47;55.83;;;25.03;;
21352;SDS011;10834;52.268;6.770;2023-11-21T06:57:33;47.53;;;26.23;;
21352;SDS011;10834;52.268;6.770;2023-11-21T07:00:17;58.90;;;27.00;;
21352;SDS011;10834;52.268;6.770;2023-11-21T07:03:02;46.70;;;25.90;;
21352;SDS011;10834;52.268;6.770;2023-11-21T07:05:47;49.73;;;23.87;;
21352;SDS011;10834;52.268;6.770;2023-11-21T07:08:31;49.07;;;24.23;;
21352;SDS011;10834;52.268;6.770;2023-11-21T07:11:15;45.93;;;24.30;;
21352;SDS011;10834;52.268;6.770;2023-11-21T07:13:59;49.20;;;26.20;;
21352;SDS011;10834;52.268;6.770;2023-11-21T07:16:49;48.63;;;24.00;;
21352;SDS011;10834;52.268;6.770;2023-11-21T07:19:34;49.37;;;25.63;;
21352;SDS011;10834;52.268;6.770;2023-11-21T07:22:19;48.10;;;25.93;;
21352;SDS011;10834;52.268;6.770;2023-11-21T07:25:05;49.73;;;26.17;;
21352;SDS011;10834;52.268;6.770;2023-11-21T07:27:50;42.63;;;23.50;;
21352;SDS011;10834;52.268;6.770;2023-11-21T07:30:35;48.87;;;23.37;;
21352;SDS011;10834;52.268;6.770;2023-11-21T07:33:19;54.07;;;26.23;;
21352;SDS011;10834;52.268;6.770;2023-11-21T07:36:05;52.53;;;25.87;;
21352;SDS011;10834;52.268;6.770;2023-11-21T07:38:50;45.93;;;24.30;;
21352;SDS011;10834;52.268;6.770;2023-11-21T07:41:35;45.10;;;23.57;;
21352;SDS011;10834;52.268;6.770;2023-11-21T07:44:19;50.40;;;25.40;;
21352;SDS011;10834;52.268;6.770;2023-11-21T07:47:03;45.20;;;23.67;;
21352;SDS011;10834;52.268;6.770;2023-11-21T07:49:48;45.50;;;24.20;;
21352;SDS011;10834;52.268;6.770;2023-11-21T07:52:32;45.73;;;23.60;;
21352;SDS011;10834;52.268;6.770;2023-11-21T07:55:17;43.80;;;22.43;;
21352;SDS011;10834;52.268;6.770;2023-11-21T07:58:01;47.17;;;23.13;;
21352;SDS011;10834;52.268;6.770;2023-11-21T08:00:45;43.47;;;23.40;;
21352;SDS011;10834;52.268;6.770;2023-11-21T08:03:30;38.20;;;22.67;;
21352;SDS011;10834;52.268;6.770;2023-11-21T08:06:15;36.20;;;20.90;;
21352;SDS011;10834;52.268;6.770;2023-11-21T08:08:59;42.43;;;22.43;;
21352;SDS011;10834;52.268;6.770;2023-11-21T08:11:43;42.43;;;21.73;;
21352;SDS011;10834;52.268;6.770;2023-11-21T08:14:27;40.40;;;21.73;;
21352;SDS011;10834;52.268;6.770;2023-11-21T08:17:11;38.50;;;21.47;;
21352;SDS011;10834;52.268;6.770;2023-11-21T08:19:56;48.23;;;23.03;;
21352;SDS011;10834;52.268;6.770;2023-11-21T08:22:42;44.17;;;22.67;;
21352;SDS011;10834;52.268;6.770;2023-11-21T08:25:27;44.03;;;21.87;;
21352;SDS011;10834;52.268;6.770;2023-11-21T08:28:12;47.27;;;23.10;;
21352;SDS011;10834;52.268;6.770;2023-11-21T08:31:00;38.00;;;22.23;;
21352;SDS011;10834;52.268;6.770;2023-11-21T08:33:45;43.20;;;22.73;;
21352;SDS011;10834;52.268;6.770;2023-11-21T08:36:28;41.47;;;23.93;;
21352;SDS011;10834;52.268;6.770;2023-11-21T08:39:15;41.87;;;22.07;;
21352;SDS011;10834;52.268;6.770;2023-11-21T08:42:00;43.90;;;21.30;;
21352;SDS011;10834;52.268;6.770;2023-11-21T08:44:44;45.30;;;20.93;;
21352;SDS011;10834;52.268;6.770;2023-11-21T08:47:28;40.50;;;20.33;;
21352;SDS011;10834;52.268;6.770;2023-11-21T08:50:12;51.70;;;22.20;;
21352;SDS011;10834;52.268;6.770;2023-11-21T08:52:58;44.13;;;23.47;;
21352;SDS011;10834;52.268;6.770;2023-11-21T08:55:43;38.27;;;21.93;;
21352;SDS011;10834;52.268;6.770;2023-11-21T08:58:28;51.77;;;25.23;;
21352;SDS011;10834;52.268;6.770;2023-11-21T09:01:12;44.23;;;24.17;;
21352;SDS011;10834;52.268;6.770;2023-11-21T09:03:57;52.93;;;26.13;;
21352;SDS011;10834;52.268;6.770;2023-11-21T09:06:42;52.27;;;23.80;;
21352;SDS011;10834;52.268;6.770;2023-11-21T09:09:26;59.50;;;28.20;;
21352;SDS011;10834;52.268;6.770;2023-11-21T09:12:10;53.43;;;25.20;;
21352;SDS011;10834;52.268;6.770;2023-11-21T09:14:56;48.77;;;25.77;;
21352;SDS011;10834;52.268;6.770;2023-11-21T09:17:40;49.80;;;25.20;;
21352;SDS011;10834;52.268;6.770;2023-11-21T09:20:24;48.63;;;22.80;;
21352;SDS011;10834;52.268;6.770;2023-11-21T09:23:08;40.60;;;20.03;;
21352;SDS011;10834;52.268;6.770;2023-11-21T09:25:52;36.97;;;20.73;;
21352;SDS011;10834;52.268;6.770;2023-11-21T09:28:40;34.23;;;18.97;;
21352;SDS011;10834;52.268;6.770;2023-11-21T09:31:26;34.87;;;19.73;;
21352;SDS011;10834;52.268;6.770;2023-11-21T09:34:11;33.27;;;17.77;;
21352;SDS011;10834;52.268;6.770;2023-11-21T09:36:55;32.63;;;17.70;;
21352;SDS011;10834;52.268;6.770;2023-11-21T09:39:39;30.73;;;17.63;;
21352;SDS011;10834;52.268;6.770;2023-11-21T09:42:25;34.13;;;17.47;;
21352;SDS011;10834;52.268;6.770;2023-11-21T09:45:24;31.47;;;18.33;;
21352;SDS011;10834;52.268;6.770;2023-11-21T09:48:10;35.93;;;17.27;;
21352;SDS011;10834;52.268;6.770;2023-11-21T09:50:55;29.80;;;16.17;;
21352;SDS011;10834;52.268;6.770;2023-11-21T09:53:40;34.87;;;18.57;;
21352;SDS011;10834;52.268;6.770;2023-11-21T09:56:27;28.03;;;16.60;;
21352;SDS011;10834;52.268;6.770;2023-11-21T09:59:14;28.17;;;15.57;;
21352;SDS011;10834;52.268;6.770;2023-11-21T10:01:59;28.37;;;16.17;;
21352;SDS011;10834;52.268;6.770;2023-11-21T10:04:45;23.93;;;14.70;;
21352;SDS011;10834;52.268;6.770;2023-11-21T10:07:30;27.67;;;15.63;;
21352;SDS011;10834;52.268;6.770;2023-11-21T10:10:18;26.40;;;16.40;;
21352;SDS011;10834;52.268;6.770;2023-11-21T10:13:05;29.47;;;17.17;;
21352;SDS011;10834;52.268;6.770;2023-11-21T10:15:51;26.40;;;16.73;;
21352;SDS011;10834;52.268;6.770;2023-11-21T10:18:36;29.20;;;15.37;;
21352;SDS011;10834;52.268;6.770;2023-11-21T10:21:23;29.63;;;16.37;;
21352;SDS011;10834;52.268;6.770;2023-11-21T10:24:07;28.43;;;17.20;;
21352;SDS011;10834;52.268;6.770;2023-11-21T10:26:51;24.37;;;13.93;;
21352;SDS011;10834;52.268;6.770;2023-11-21T10:29:37;26.60;;;14.90;;
21352;SDS011;10834;52.268;6.770;2023-11-21T10:32:27;23.83;;;14.70;;
21352;SDS011;10834;52.268;6.770;2023-11-21T10:35:15;24.03;;;15.63;;
21352;SDS011;10834;52.268;6.770;2023-11-21T10:38:00;28.20;;;14.77;;
21352;SDS011;10834;52.268;6.770;2023-11-21T10:40:44;26.27;;;14.17;;
21352;SDS011;10834;52.268;6.770;2023-11-21T10:43:29;27.67;;;16.10;;
21352;SDS011;10834;52.268;6.770;2023-11-21T10:46:14;23.43;;;13.97;;
21352;SDS011;10834;52.268;6.770;2023-11-21T10:48:59;24.37;;;13.77;;
21352;SDS011;10834;52.268;6.770;2023-11-21T10:51:43;25.27;;;13.77;;
21352;SDS011;10834;52.268;6.770;2023-11-21T10:54:28;20.10;;;12.87;;
21352;SDS011;10834;52.268;6.770;2023-11-21T10:57:12;23.83;;;13.67;;
21352;SDS011;10834;52.268;6.770;2023-11-21T11:00:01;22.80;;;14.40;;
21352;SDS011;10834;52.268;6.770;2023-11-21T11:02:49;25.53;;;13.87;;
21352;SDS011;10834;52.268;6.770;2023-11-21T11:05:35;21.47;;;13.10;;
21352;SDS011;10834;52.268;6.770;2023-11-21T11:08:23;21.07;;;12.73;;
21352;SDS011;10834;52.268;6.770;2023-11-21T11:11:11;23.37;;;13.53;;
21352;SDS011;10834;52.268;6.770;2023-11-21T11:13:55;23.97;;;13.73;;
21352;SDS011;10834;52.268;6.770;2023-11-21T11:16:40;23.90;;;13.43;;
21352;SDS011;10834;52.268;6.770;2023-11-21T11:19:26;25.47;;;13.90;;
21352;SDS011;10834;52.268;6.770;2023-11-21T11:22:35;24.67;;;13.43;;
21352;SDS011;10834;52.268;6.770;2023-11-21T11:25:27;29.60;;;14.60;;
21352;SDS011;10834;52.268;6.770;2023-11-21T11:28:27;27.30;;;14.47;;
21352;SDS011;10834;52.268;6.770;2023-11-21T11:37:27;27.47;;;15.07;;
21352;SDS011;10834;52.268;6.770;2023-11-21T11:40:12;33.43;;;16.03;;
21352;SDS011;10834;52.268;6.770;2023-11-21T11:42:57;31.43;;;16.87;;
21352;SDS011;10834;52.268;6.770;2023-11-21T11:45:45;34.13;;;18.23;;
21352;SDS011;10834;52.268;6.770;2023-11-21T11:48:37;33.07;;;15.53;;
21352;SDS011;10834;52.268;6.770;2023-11-21T11:51:23;28.00;;;14.67;;
21352;SDS011;10834;52.268;6.770;2023-11-21T11:54:07;26.70;;;12.53;;
21352;SDS011;10834;52.268;6.770;2023-11-21T11:56:51;25.37;;;12.13;;
21352;SDS011;10834;52.268;6.770;2023-11-21T12:00:06;22.53;;;12.17;;
21352;SDS011;10834;52.268;6.770;2023-11-21T12:02:57;21.10;;;11.97;;
21352;SDS011;10834;52.268;6.770;2023-11-21T12:05:43;23.00;;;11.60;;
21352;SDS011;10834;52.268;6.770;2023-11-21T12:08:30;19.97;;;11.47;;
21352;SDS011;10834;52.268;6.770;2023-11-21T12:11:15;19.37;;;10.70;;
21352;SDS011;10834;52.268;6.770;2023-11-21T12:14:01;18.90;;;11.37;;
21352;SDS011;10834;52.268;6.770;2023-11-21T12:16:48;20.50;;;11.57;;
21352;SDS011;10834;52.268;6.770;2023-11-21T12:19:32;21.60;;;11.80;;
21352;SDS011;10834;52.268;6.770;2023-11-21T12:22:17;23.50;;;11.97;;
21352;SDS011;10834;52.268;6.770;2023-11-21T12:25:03;22.03;;;12.33;;
21352;SDS011;10834;52.268;6.770;2023-11-21T12:27:49;19.20;;;11.83;;
21352;SDS011;10834;52.268;6.770;2023-11-21T12:30:35;22.37;;;12.20;;
21352;SDS011;10834;52.268;6.770;2023-11-21T12:33:21;25.10;;;12.47;;
21352;SDS011;10834;52.268;6.770;2023-11-21T12:36:06;18.90;;;10.47;;
21352;SDS011;10834;52.268;6.770;2023-11-21T12:38:54;22.17;;;12.53;;
21352;SDS011;10834;52.268;6.770;2023-11-21T12:41:38;21.30;;;11.83;;
21352;SDS011;10834;52.268;6.770;2023-11-21T12:44:23;20.70;;;11.40;;
21352;SDS011;10834;52.268;6.770;2023-11-21T12:47:07;20.60;;;11.90;;
21352;SDS011;10834;52.268;6.770;2023-11-21T12:49:51;19.17;;;11.57;;
21352;SDS011;10834;52.268;6.770;2023-11-21T12:52:35;20.23;;;11.93;;
21352;SDS011;10834;52.268;6.770;2023-11-21T12:55:21;19.47;;;12.33;;
21352;SDS011;10834;52.268;6.770;2023-11-21T12:58:06;19.90;;;11.93;;
21352;SDS011;10834;52.268;6.770;2023-11-21T13:00:52;26.07;;;14.30;;
21352;SDS011;10834;52.268;6.770;2023-11-21T13:03:37;20.30;;;12.33;;
21352;SDS011;10834;52.268;6.770;2023-11-21T13:06:23;18.20;;;12.13;;
21352;SDS011;10834;52.268;6.770;2023-11-21T13:09:11;21.73;;;13.00;;
21352;SDS011;10834;52.268;6.770;2023-11-21T13:12:00;19.57;;;12.13;;
21352;SDS011;10834;52.268;6.770;2023-11-21T13:14:47;18.77;;;12.23;;
21352;SDS011;10834;52.268;6.770;2023-11-21T13:17:31;18.67;;;13.20;;
21352;SDS011;10834;52.268;6.770;2023-11-21T13:20:15;17.67;;;13.10;;
21352;SDS011;10834;52.268;6.770;2023-11-21T13:23:00;16.63;;;12.57;;
21352;SDS011;10834;52.268;6.770;2023-11-21T13:25:52;16.80;;;13.33;;
21352;SDS011;10834;52.268;6.770;2023-11-21T13:28:37;17.70;;;13.13;;
21352;SDS011;10834;52.268;6.770;2023-11-21T13:31:21;17.27;;;13.10;;
21352;SDS011;10834;52.268;6.770;2023-11-21T13:34:16;19.07;;;13.07;;
21352;SDS011;10834;52.268;6.770;2023-11-21T13:37:03;19.33;;;13.40;;
21352;SDS011;10834;52.268;6.770;2023-11-21T13:39:51;15.50;;;11.90;;
21352;SDS011;10834;52.268;6.770;2023-11-21T13:42:36;15.27;;;11.27;;
21352;SDS011;10834;52.268;6.770;2023-11-21T13:45:21;14.37;;;11.57;;
21352;SDS011;10834;52.268;6.770;2023-11-21T13:48:06;14.23;;;10.83;;
21352;SDS011;10834;52.268;6.770;2023-11-21T13:50:54;18.00;;;12.80;;
21352;SDS011;10834;52.268;6.770;2023-11-21T13:53:41;19.43;;;12.57;;
21352;SDS011;10834;52.268;6.770;2023-11-21T13:56:25;17.00;;;12.17;;
21352;SDS011;10834;52.268;6.770;2023-11-21T13:59:12;15.27;;;11.43;;
21352;SDS011;10834;52.268;6.770;2023-11-21T14:02:04;13.43;;;9.87;;
21352;SDS011;10834;52.268;6.770;2023-11-21T14:05:17;12.33;;;9.67;;
21352;SDS011;10834;52.268;6.770;2023-11-21T14:08:12;10.83;;;8.60;;
21352;SDS011;10834;52.268;6.770;2023-11-21T14:11:00;10.90;;;8.57;;
21352;SDS011;10834;52.268;6.770;2023-11-21T14:13:44;12.67;;;9.37;;
21352;SDS011;10834;52.268;6.770;2023-11-21T14:16:32;12.33;;;8.07;;
21352;SDS011;10834;52.268;6.770;2023-11-21T14:19:17;9.27;;;8.00;;
21352;SDS011;10834;52.268;6.770;2023-11-21T14:22:01;13.63;;;8.33;;
21352;SDS011;10834;52.268;6.770;2023-11-21T14:24:46;11.77;;;8.17;;
21352;SDS011;10834;52.268;6.770;2023-11-21T14:27:31;10.93;;;8.33;;
21352;SDS011;10834;52.268;6.770;2023-11-21T14:30:16;9.30;;;7.33;;
21352;SDS011;10834;52.268;6.770;2023-11-21T14:33:02;11.80;;;8.70;;
21352;SDS011;10834;52.268;6.770;2023-11-21T14:35:47;10.90;;;8.10;;
21352;SDS011;10834;52.268;6.770;2023-11-21T14:38:33;11.93;;;8.50;;
21352;SDS011;10834;52.268;6.770;2023-11-21T14:41:17;12.70;;;9.10;;
21352;SDS011;10834;52.268;6.770;2023-11-21T14:44:02;12.00;;;8.67;;
21352;SDS011;10834;52.268;6.770;2023-11-21T14:46:47;17.07;;;8.90;;
21352;SDS011;10834;52.268;6.770;2023-11-21T14:49:34;12.90;;;9.10;;
21352;SDS011;10834;52.268;6.770;2023-11-21T14:52:34;11.83;;;8.43;;
21352;SDS011;10834;52.268;6.770;2023-11-21T14:55:18;11.83;;;8.70;;
21352;SDS011;10834;52.268;6.770;2023-11-21T14:58:23;11.37;;;8.57;;
21352;SDS011;10834;52.268;6.770;2023-11-21T15:01:10;13.23;;;8.57;;
21352;SDS011;10834;52.268;6.770;2023-11-21T15:03:54;12.30;;;8.00;;
21352;SDS011;10834;52.268;6.770;2023-11-21T15:06:38;10.87;;;8.50;;
21352;SDS011;10834;52.268;6.770;2023-11-21T15:09:25;11.53;;;8.10;;
21352;SDS011;10834;52.268;6.770;2023-11-21T15:12:15;12.40;;;8.63;;
21352;SDS011;10834;52.268;6.770;2023-11-21T15:15:00;13.20;;;8.73;;
21352;SDS011;10834;52.268;6.770;2023-11-21T15:17:44;10.83;;;8.13;;
21352;SDS011;10834;52.268;6.770;2023-11-21T15:20:29;11.77;;;8.60;;
21352;SDS011;10834;52.268;6.770;2023-11-21T15:23:14;11.93;;;8.70;;
21352;SDS011;10834;52.268;6.770;2023-11-21T15:26:00;17.73;;;10.23;;
21352;SDS011;10834;52.268;6.770;2023-11-21T15:28:47;12.90;;;8.90;;
21352;SDS011;10834;52.268;6.770;2023-11-21T15:31:31;14.33;;;9.67;;
21352;SDS011;10834;52.268;6.770;2023-11-21T15:34:15;14.13;;;10.47;;
21352;SDS011;10834;52.268;6.770;2023-11-21T15:36:59;14.87;;;9.37;;
21352;SDS011;10834;52.268;6.770;2023-11-21T15:39:44;12.67;;;9.70;;
21352;SDS011;10834;52.268;6.770;2023-11-21T15:42:29;12.03;;;9.40;;
21352;SDS011;10834;52.268;6.770;2023-11-21T15:45:14;14.87;;;9.80;;
21352;SDS011;10834;52.268;6.770;2023-11-21T15:47:58;12.43;;;9.50;;
21352;SDS011;10834;52.268;6.770;2023-11-21T15:50:44;13.73;;;9.47;;
21352;SDS011;10834;52.268;6.770;2023-11-21T15:53:28;14.13;;;9.87;;
21352;SDS011;10834;52.268;6.770;2023-11-21T15:56:12;13.17;;;9.40;;
21352;SDS011;10834;52.268;6.770;2023-11-21T15:58:57;11.40;;;9.40;;
21352;SDS011;10834;52.268;6.770;2023-11-21T16:01:41;12.67;;;10.37;;
21352;SDS011;10834;52.268;6.770;2023-11-21T16:04:29;12.70;;;9.27;;
21352;SDS011;10834;52.268;6.770;2023-11-21T16:07:14;12.23;;;8.70;;
21352;SDS011;10834;52.268;6.770;2023-11-21T16:09:58;11.67;;;8.63;;
21352;SDS011;10834;52.268;6.770;2023-11-21T16:12:42;15.93;;;9.50;;
21352;SDS011;10834;52.268;6.770;2023-11-21T16:15:26;11.37;;;8.57;;